Time;durP1;ratioP1;P1;durP2;ratioP2;P2;SDS_P1;SDS_P2;PMS_P1;PMS_P2;Temp;Humidity;BMP_temperature;BMP_pressure;BME280_temperature;BME280_humidity;BME280_pressure;Samples;Min_cycle;Max_cycle;Signal;HPM_P1;HPM_P2
2022/03/11 00:01:12;;;;;;;18.05;9.65;;;;;;;-1.51;67.01;99406.69;4189274;28;20131;-70
2022/03/11 00:03:13;;;;;;;20.17;10.40;;;;;;;-1.53;67.40;99410.75;4189085;28;20400;-70
2022/03/11 00:05:13;;;;;;;20.83;10.32;;;;;;;-1.56;67.66;99408.63;4188679;28;20451;-70
2022/03/11 00:07:14;;;;;;;20.40;10.35;;;;;;;-1.58;67.50;99405.34;4200438;28;20121;-70
2022/03/11 00:09:14;;;;;;;18.77;10.23;;;;;;;-1.58;67.83;99410.75;4203698;28;20048;-70
2022/03/11 00:11:15;;;;;;;23.70;10.38;;;;;;;-1.53;68.25;99398.00;4191243;28;20037;-70
2022/03/11 00:13:15;;;;;;;20.08;10.63;;;;;;;-1.51;68.97;99403.97;4195052;28;20602;-70
2022/03/11 00:15:15;;;;;;;21.27;10.38;;;;;;;-1.57;67.63;99404.25;4188989;28;20127;-70
2022/03/11 00:17:16;;;;;;;16.85;9.30;;;;;;;-1.52;68.90;99399.63;4188029;28;20040;-70
2022/03/11 00:19:16;;;;;;;18.90;10.05;;;;;;;-1.49;68.21;99403.69;4188370;28;20059;-70
2022/03/11 00:21:16;;;;;;;26.05;10.68;;;;;;;-1.53;68.01;99400.72;4189212;28;20024;-70
2022/03/11 00:23:17;;;;;;;21.00;10.02;;;;;;;-1.60;68.80;99404.81;4188638;28;20400;-70
2022/03/11 00:25:18;;;;;;;19.83;9.45;;;;;;;-1.66;68.57;99408.63;4188637;28;20055;-70
2022/03/11 00:27:18;;;;;;;18.17;10.57;;;;;;;-1.71;68.46;99404.03;4187884;28;20486;-70
2022/03/11 00:29:19;;;;;;;19.48;10.23;;;;;;;-1.67;68.26;99409.72;4193028;28;20040;-70
2022/03/11 00:31:19;;;;;;;21.05;10.02;;;;;;;-1.70;69.20;99406.47;4191148;28;20448;-70
2022/03/11 00:33:19;;;;;;;19.27;9.52;;;;;;;-1.72;68.45;99410.53;4188908;28;20303;-70
2022/03/11 00:35:20;;;;;;;17.45;9.57;;;;;;;-1.74;68.17;99399.97;4188518;28;20112;-70
2022/03/11 00:37:21;;;;;;;17.30;8.25;;;;;;;-1.71;67.98;99401.31;4188075;28;20408;-70
2022/03/11 00:39:21;;;;;;;17.20;9.88;;;;;;;-1.72;67.83;99399.69;4197720;28;20447;-70
2022/03/11 00:41:21;;;;;;;22.90;9.93;;;;;;;-1.81;67.76;99398.63;4202566;28;20139;-70
2022/03/11 00:43:23;;;;;;;21.48;11.05;;;;;;;-1.85;68.71;99401.06;4203372;28;20052;-70
2022/03/11 00:45:23;;;;;;;17.17;9.07;;;;;;;-1.88;68.85;99400.81;4197611;28;20039;-70
2022/03/11 00:47:24;;;;;;;22.42;10.45;;;;;;;-1.91;68.14;99407.56;4188402;28;20045;-70
2022/03/11 00:49:24;;;;;;;19.42;10.30;;;;;;;-1.94;68.80;99410.84;4187778;28;20098;-70
2022/03/11 00:51:24;;;;;;;18.98;10.18;;;;;;;-2.02;68.57;99401.34;4203845;28;20611;-70
2022/03/11 00:53:25;;;;;;;20.98;10.10;;;;;;;-2.11;68.59;99396.75;4189025;28;20063;-70
2022/03/11 00:55:26;;;;;;;17.30;9.80;;;;;;;-2.16;69.42;99402.19;4194183;28;20055;-70
2022/03/11 00:57:27;;;;;;;18.15;10.23;;;;;;;-2.23;70.05;99391.63;4187638;28;20045;-70
2022/03/11 00:59:27;;;;;;;22.08;10.27;;;;;;;-2.30;70.25;99391.09;4188226;28;20052;-70
2022/03/11 01:01:27;;;;;;;20.42;10.23;;;;;;;-2.31;70.78;99386.75;4188534;28;20044;-70
2022/03/11 01:03:28;;;;;;;21.80;10.05;;;;;;;-2.29;70.70;99396.22;4188145;28;20151;-70
2022/03/11 01:05:28;;;;;;;23.70;11.10;;;;;;;-2.26;70.74;99395.69;4189782;28;20136;-70
2022/03/11 01:07:28;;;;;;;20.52;9.90;;;;;;;-2.23;71.04;99396.22;4196008;28;20831;-70
2022/03/11 01:09:29;;;;;;;19.38;9.98;;;;;;;-2.18;70.15;99388.09;4202160;28;20051;-70
2022/03/11 01:11:29;;;;;;;22.00;10.30;;;;;;;-2.12;71.12;99389.72;4189669;28;20057;-70
2022/03/11 01:13:30;;;;;;;22.73;11.90;;;;;;;-2.12;70.22;99385.09;4188289;28;20080;-70
2022/03/11 01:15:30;;;;;;;22.88;10.98;;;;;;;-2.08;70.41;99388.88;4187777;28;20484;-70
2022/03/11 01:17:30;;;;;;;20.58;11.20;;;;;;;-2.11;71.09;99386.72;4186835;28;20101;-70
2022/03/11 01:19:31;;;;;;;25.63;12.60;;;;;;;-2.10;71.36;99387.53;4189371;28;20037;-70
2022/03/11 01:21:31;;;;;;;21.40;10.85;;;;;;;-2.12;71.16;99382.41;4188088;28;20037;-70
2022/03/11 01:23:31;;;;;;;20.48;10.95;;;;;;;-2.08;71.74;99388.06;4188062;28;20097;-70
2022/03/11 01:25:32;;;;;;;24.15;11.27;;;;;;;-2.12;71.82;99387.81;4187138;28;20484;-70
2022/03/11 01:27:32;;;;;;;23.95;10.95;;;;;;;-2.09;71.37;99383.75;4192894;28;20079;-70
2022/03/11 01:29:33;;;;;;;22.23;11.82;;;;;;;-2.07;71.01;99378.84;4188990;28;20036;-70
2022/03/11 01:31:33;;;;;;;25.48;10.85;;;;;;;-2.01;70.52;99384.00;4195648;28;20101;-70
2022/03/11 01:33:33;;;;;;;20.25;11.45;;;;;;;-2.03;71.53;99369.91;4188118;28;20056;-70
2022/03/11 01:35:34;;;;;;;21.63;11.13;;;;;;;-2.06;71.34;99370.47;4187741;28;20454;-70
2022/03/11 01:37:34;;;;;;;20.65;10.52;;;;;;;-2.02;71.71;99379.66;4186868;28;20033;-70
2022/03/11 01:39:34;;;;;;;23.52;11.07;;;;;;;-2.07;70.71;99360.72;4188169;28;20575;-70
2022/03/11 01:41:35;;;;;;;20.20;9.82;;;;;;;-2.13;70.22;99361.78;4187681;28;20044;-70
2022/03/11 01:43:54;;;;;;;19.77;9.85;;;;;;;-2.15;70.59;99365.84;4187350;28;20044;-70
2022/03/11 01:45:56;;;;;;;21.30;10.98;;;;;;;-2.25;70.87;99363.97;4187909;28;20040;-70
2022/03/11 01:47:56;;;;;;;20.65;10.88;;;;;;;-2.29;71.33;99365.59;4194595;28;20056;-70
2022/03/11 01:49:56;;;;;;;24.55;10.38;;;;;;;-2.35;71.11;99361.25;4202697;28;20040;-70
2022/03/11 01:51:57;;;;;;;22.92;11.73;;;;;;;-2.35;71.62;99370.19;4201241;28;20047;-70
2022/03/11 01:53:57;;;;;;;23.05;11.57;;;;;;;-2.40;71.34;99366.66;4203659;28;20044;-70
2022/03/11 01:55:58;;;;;;;22.38;11.52;;;;;;;-2.43;71.29;99359.09;4189768;28;20375;-70
2022/03/11 01:57:58;;;;;;;20.45;10.85;;;;;;;-2.44;71.61;99369.13;4186540;28;20504;-70
2022/03/11 01:59:58;;;;;;;22.15;11.68;;;;;;;-2.46;71.79;99356.94;4187669;28;20045;-70
2022/03/11 02:01:58;;;;;;;22.77;12.10;;;;;;;-2.51;71.43;99357.75;4185971;28;20048;-70
2022/03/11 02:03:59;;;;;;;20.00;10.40;;;;;;;-2.54;71.97;99361.00;4187334;28;20040;-70
2022/03/11 02:06:02;;;;;;;20.00;10.80;;;;;;;-2.60;71.30;99356.66;4187566;28;20470;-70
2022/03/11 02:08:02;;;;;;;22.40;10.20;;;;;;;-2.64;70.97;99353.69;4186351;28;20174;-70
2022/03/11 02:10:03;;;;;;;21.13;10.77;;;;;;;-2.72;70.92;99346.09;4188198;28;20480;-71
2022/03/11 02:12:03;;;;;;;25.15;11.63;;;;;;;-2.82;71.00;99348.78;4193348;28;20078;-71
2022/03/11 02:14:05;;;;;;;21.38;10.80;;;;;;;-2.88;71.03;99345.25;4203287;28;20118;-70
2022/03/11 02:16:05;;;;;;;25.30;10.93;;;;;;;-2.95;71.90;99352.03;4201795;28;20031;-71
2022/03/11 02:18:05;;;;;;;26.95;11.23;;;;;;;-2.99;73.24;99351.72;4189019;28;20467;-71
2022/03/11 02:20:06;;;;;;;23.98;11.43;;;;;;;-3.01;72.82;99344.97;4191871;28;20232;-71
2022/03/11 02:22:07;;;;;;;20.45;11.38;;;;;;;-3.05;73.93;99352.81;4203275;28;20357;-71
2022/03/11 02:24:09;;;;;;;20.65;10.60;;;;;;;-3.08;72.44;99350.63;4202122;28;20074;-71
2022/03/11 02:26:10;;;;;;;25.55;10.68;;;;;;;-3.13;72.51;99346.03;4186086;28;20086;-71
2022/03/11 02:28:10;;;;;;;24.98;11.75;;;;;;;-3.18;73.09;99347.91;4186209;28;20382;-71
2022/03/11 02:30:16;;;;;;;19.08;10.38;;;;;;;-3.23;73.74;99350.59;4194991;28;20036;-71
2022/03/11 02:32:17;;;;;;;21.48;10.75;;;;;;;-3.25;73.78;99341.91;4196387;28;20147;-71
2022/03/11 02:34:17;;;;;;;21.02;10.77;;;;;;;-3.29;73.78;99340.84;4188127;28;20082;-71
2022/03/11 02:36:18;;;;;;;20.35;10.20;;;;;;;-3.28;73.03;99345.16;4203307;28;20044;-71
2022/03/11 02:38:18;;;;;;;21.58;10.77;;;;;;;-3.25;73.58;99340.03;4187999;28;20033;-71
2022/03/11 02:40:19;;;;;;;21.90;10.25;;;;;;;-3.24;73.88;99347.06;4187060;28;20055;-71
2022/03/11 02:42:19;;;;;;;18.77;9.73;;;;;;;-3.21;72.80;99346.56;4186616;28;20772;-71
2022/03/11 02:44:19;;;;;;;19.95;10.65;;;;;;;-3.19;72.63;99343.56;4196969;28;20437;-71
2022/03/11 02:46:20;;;;;;;22.05;10.60;;;;;;;-3.17;72.91;99338.69;4201494;28;20036;-71
2022/03/11 02:48:20;;;;;;;20.25;10.85;;;;;;;-3.18;72.52;99334.38;4200491;28;20052;-71
2022/03/11 02:50:20;;;;;;;20.30;10.25;;;;;;;-3.24;72.80;99333.53;4202996;28;20199;-71
2022/03/11 02:52:21;;;;;;;29.48;10.70;;;;;;;-3.24;71.32;99336.25;4194707;28;20049;-71
2022/03/11 02:54:25;;;;;;;21.08;10.82;;;;;;;-3.28;71.89;99334.34;4186426;28;20049;-71
2022/03/11 02:56:25;;;;;;;19.98;9.32;;;;;;;-3.36;72.52;99329.44;4202346;28;20075;-71
2022/03/11 02:58:25;;;;;;;16.27;9.07;;;;;;;-3.38;72.11;99334.31;4189184;28;20061;-71
2022/03/11 03:00:26;;;;;;;19.60;10.68;;;;;;;-3.48;72.15;99325.06;4185865;28;20064;-71
2022/03/11 03:02:26;;;;;;;20.70;9.35;;;;;;;-3.56;72.62;99320.16;4186238;28;20488;-71
2022/03/11 03:04:26;;;;;;;17.70;9.07;;;;;;;-3.61;73.23;99320.16;4196385;28;20085;-71
2022/03/11 03:06:27;;;;;;;21.25;10.20;;;;;;;-3.64;73.69;99319.88;4194980;28;20399;-71
2022/03/11 03:08:27;;;;;;;21.02;10.25;;;;;;;-3.70;72.86;99308.22;4185700;28;20122;-71
2022/03/11 03:10:27;;;;;;;21.63;8.75;;;;;;;-3.69;72.82;99313.38;4186676;28;20516;-71
2022/03/11 03:12:28;;;;;;;18.33;9.25;;;;;;;-3.73;73.39;99304.16;4195266;28;20090;-71
2022/03/11 03:14:28;;;;;;;22.52;10.50;;;;;;;-3.77;73.47;99310.38;4189035;28;20547;-71
2022/03/11 03:16:29;;;;;;;17.10;8.88;;;;;;;-3.81;73.81;99310.06;4193912;28;20044;-71
2022/03/11 03:18:30;;;;;;;21.10;10.25;;;;;;;-3.82;73.85;99315.75;4189562;28;20476;-71
2022/03/11 03:20:30;;;;;;;19.58;9.82;;;;;;;-3.86;73.18;99306.53;4201116;28;20044;-71
2022/03/11 03:22:31;;;;;;;19.77;10.38;;;;;;;-3.91;73.21;99296.50;4186278;28;20068;-71
2022/03/11 03:24:31;;;;;;;21.45;10.18;;;;;;;-3.96;74.15;99305.41;4186776;28;20160;-71
2022/03/11 03:26:31;;;;;;;18.35;9.45;;;;;;;-3.99;73.99;99302.41;4185548;28;20044;-71
2022/03/11 03:28:32;;;;;;;19.15;9.55;;;;;;;-4.04;73.83;99303.22;4191174;28;20115;-71
2022/03/11 03:30:32;;;;;;;22.00;9.57;;;;;;;-4.06;74.41;99307.22;4201564;28;20050;-71
2022/03/11 03:32:33;;;;;;;23.02;10.30;;;;;;;-4.06;73.95;99299.13;4200932;28;20067;-71
2022/03/11 03:34:35;;;;;;;16.60;9.13;;;;;;;-4.04;74.15;99300.50;4186078;28;20101;-71
2022/03/11 03:36:35;;;;;;;;;;;;;;;-4.01;73.79;99297.28;4186296;28;20480;-71
2022/03/11 03:38:36;;;;;;;17.60;8.18;;;;;;;-3.98;73.71;99296.75;4192219;28;20066;-71
2022/03/11 03:40:36;;;;;;;17.27;8.93;;;;;;;-4.00;73.16;99301.59;4193157;28;20059;-71
2022/03/11 03:42:36;;;;;;;15.40;7.90;;;;;;;-3.97;72.82;99297.56;4186037;28;22417;-71
2022/03/11 03:44:37;;;;;;;16.25;8.55;;;;;;;-3.97;74.03;99292.16;4195235;28;20060;-71
2022/03/11 03:46:37;;;;;;;17.80;9.02;;;;;;;-4.00;73.85;99296.19;4192419;28;20051;-71
2022/03/11 03:48:37;;;;;;;17.90;8.70;;;;;;;-3.99;73.60;99297.81;4186044;28;20362;-71
2022/03/11 03:50:38;;;;;;;17.10;8.70;;;;;;;-4.00;72.55;99295.38;4186469;28;20075;-71
2022/03/11 03:52:38;;;;;;;15.80;8.05;;;;;;;-4.01;72.61;99293.75;4186073;28;20476;-71
2022/03/11 03:54:39;;;;;;;16.17;8.02;;;;;;;-4.02;72.82;99306.47;4186073;28;20044;-71
2022/03/11 03:56:42;;;;;;;14.68;7.82;;;;;;;-4.08;72.38;99298.59;4185267;28;20310;-72
2022/03/11 03:58:42;;;;;;;;;;;;;;;-4.13;72.32;99298.56;4186380;28;20048;-70
2022/03/11 04:00:43;;;;;;;14.80;7.05;;;;;;;-4.20;72.32;99296.09;4186435;28;20363;-71
2022/03/11 04:02:47;;;;;;;16.65;8.05;;;;;;;-4.30;72.32;99291.44;4190974;28;20075;-71
2022/03/11 04:04:48;;;;;;;15.20;7.72;;;;;;;-4.32;72.81;99295.47;4192354;28;20040;-71
2022/03/11 04:06:48;;;;;;;16.40;8.15;;;;;;;-4.32;73.08;99293.59;4185388;28;20641;-71
2022/03/11 04:08:48;;;;;;;14.63;7.72;;;;;;;-4.34;72.52;99301.13;4187336;28;20049;-70
2022/03/11 04:10:49;;;;;;;14.70;7.80;;;;;;;-4.33;72.70;99296.53;4190688;28;20121;-71
2022/03/11 04:12:50;;;;;;;13.32;7.43;;;;;;;-4.29;73.62;99306.59;4198508;28;20124;-71
2022/03/11 04:14:50;;;;;;;15.95;8.63;;;;;;;-4.30;73.19;99293.34;4191696;28;20049;-71
2022/03/11 04:16:50;;;;;;;14.82;7.72;;;;;;;-4.29;73.58;99306.59;4185597;28;20044;-71
2022/03/11 04:18:51;;;;;;;15.25;7.22;;;;;;;-4.34;73.06;99306.53;4192177;28;20059;-72
2022/03/11 04:20:51;;;;;;;13.77;7.60;;;;;;;-4.38;73.73;99307.34;4186619;28;20044;-72
2022/03/11 04:22:54;;;;;;;13.98;7.53;;;;;;;-4.45;73.14;99304.03;4185590;28;20080;-71
2022/03/11 04:24:54;;;;;;;15.40;7.45;;;;;;;-4.48;74.03;99297.25;4186296;28;20491;-72
2022/03/11 04:26:54;;;;;;;18.00;8.73;;;;;;;-4.53;73.54;99291.84;4187959;28;20313;-71
2022/03/11 04:28:55;;;;;;;17.20;7.70;;;;;;;-4.48;74.12;99293.75;4187540;28;20277;-71
2022/03/11 04:30:55;;;;;;;13.48;7.05;;;;;;;-4.54;74.68;99291.03;4188751;28;20072;-71
2022/03/11 04:32:55;;;;;;;15.25;8.15;;;;;;;-4.52;75.08;99291.56;4199160;28;20551;-71
2022/03/11 04:34:56;;;;;;;18.10;8.15;;;;;;;-4.49;74.25;99289.41;4193151;28;20045;-71
2022/03/11 04:36:56;;;;;;;18.33;8.27;;;;;;;-4.53;74.02;99287.25;4187739;28;20044;-72
2022/03/11 04:38:56;;;;;;;19.48;8.13;;;;;;;-4.61;73.55;99279.63;4197934;28;20129;-72
2022/03/11 04:40:57;;;;;;;18.60;7.80;;;;;;;-4.65;73.57;99294.72;4191409;28;20048;-72
2022/03/11 04:42:58;;;;;;;14.52;8.18;;;;;;;-4.74;72.78;99290.84;4188825;28;20511;-72
2022/03/11 04:44:59;;;;;;;15.80;7.80;;;;;;;-4.74;73.94;99290.03;4188509;28;20036;-72
2022/03/11 04:46:59;;;;;;;19.48;8.70;;;;;;;-4.76;74.30;99276.00;4187452;28;20051;-72
2022/03/11 04:48:59;;;;;;;19.73;8.68;;;;;;;-4.77;73.98;99274.38;4195507;28;20143;-71
2022/03/11 04:51:02;;;;;;;18.17;8.10;;;;;;;-4.73;74.14;99278.16;4187526;28;20072;-72
2022/03/11 04:53:03;;;;;;;15.88;7.93;;;;;;;-4.73;74.04;99272.78;4188381;28;20048;-72
2022/03/11 04:55:03;;;;;;;18.63;8.88;;;;;;;-4.82;73.48;99267.84;4188224;28;20381;-72
2022/03/11 04:57:04;;;;;;;16.13;8.30;;;;;;;-4.85;73.98;99270.25;4187781;28;20037;-72
2022/03/11 04:59:04;;;;;;;16.95;8.18;;;;;;;-4.86;73.79;99274.03;4188407;28;20040;-71
2022/03/11 05:01:06;;;;;;;16.67;7.97;;;;;;;-4.89;73.96;99277.22;4188462;28;20053;-72
2022/03/11 05:03:06;;;;;;;15.82;8.00;;;;;;;-4.97;74.11;99275.81;4196205;28;20161;-71
2022/03/11 05:05:07;;;;;;;14.55;8.40;;;;;;;-4.97;73.62;99280.41;4201784;28;20485;-72
2022/03/11 05:07:07;;;;;;;15.18;7.45;;;;;;;-4.95;74.52;99278.28;4187372;28;20114;-72
2022/03/11 05:09:08;;;;;;;23.20;8.50;;;;;;;-5.01;74.50;99272.03;4188250;28;20430;-72
2022/03/11 05:11:08;;;;;;;19.15;8.93;;;;;;;-5.00;73.11;99284.44;4187612;28;20090;-72
2022/03/11 05:13:09;;;;;;;17.15;9.25;;;;;;;-5.12;72.93;99279.22;4191232;28;20040;-72
2022/03/11 05:15:10;;;;;;;21.02;8.93;;;;;;;-5.24;74.01;99283.13;4192494;28;20186;-71
2022/03/11 05:17:10;;;;;;;21.85;8.63;;;;;;;-5.27;75.21;99276.38;4191045;28;20143;-71
2022/03/11 05:19:10;;;;;;;22.92;10.70;;;;;;;-5.26;75.42;99274.50;4191600;28;20060;-71
2022/03/11 05:21:11;;;;;;;28.88;10.93;;;;;;;-5.30;75.65;99278.75;4187657;28;20236;-72
2022/03/11 05:23:12;;;;;;;27.30;12.80;;;;;;;-5.34;74.27;99278.47;4189291;28;20041;-72
2022/03/11 05:25:12;;;;;;;22.05;10.48;;;;;;;-5.39;75.25;99273.81;4187491;28;20617;-72
2022/03/11 05:27:13;;;;;;;20.85;10.30;;;;;;;-5.45;75.08;99277.56;4186840;28;20074;-72
2022/03/11 05:29:15;;;;;;;21.98;10.65;;;;;;;-5.48;75.55;99278.03;4188125;28;20047;-72
2022/03/11 05:31:15;;;;;;;21.48;10.55;;;;;;;-5.54;75.70;99284.47;4191498;28;20049;-70
2022/03/11 05:33:15;;;;;;;19.85;9.43;;;;;;;-5.61;75.49;99283.03;4190778;28;20040;-71
2022/03/11 05:35:16;;;;;;;24.20;10.13;;;;;;;-5.68;76.78;99284.03;4195325;28;20047;-70
2022/03/11 05:37:16;;;;;;;25.58;10.65;;;;;;;-5.71;75.97;99286.41;4196282;28;20032;-71
2022/03/11 05:39:17;;;;;;;25.98;11.48;;;;;;;-5.71;76.80;99289.94;4189203;28;20486;-71
2022/03/11 05:41:18;;;;;;;23.33;11.43;;;;;;;-5.72;75.90;99293.69;4192158;28;20491;-71
2022/03/11 05:43:18;;;;;;;28.75;11.82;;;;;;;-5.70;76.10;99294.28;4198778;28;20055;-71
2022/03/11 05:45:19;;;;;;;19.60;9.88;;;;;;;-5.75;75.45;99291.50;4187927;28;20593;-71
2022/03/11 05:47:19;;;;;;;24.52;10.57;;;;;;;-5.79;74.85;99293.09;4185606;28;20044;-71
2022/03/11 05:49:20;;;;;;;21.67;9.80;;;;;;;-5.81;76.13;99297.09;4191273;28;20579;-71
2022/03/11 05:51:21;;;;;;;19.00;9.50;;;;;;;-5.87;75.98;99285.44;4190657;28;20456;-71
2022/03/11 05:53:21;;;;;;;21.38;9.43;;;;;;;-5.92;76.29;99287.28;4189399;28;20083;-71
2022/03/11 05:55:21;;;;;;;21.88;9.70;;;;;;;-5.95;75.76;99286.72;4187689;28;20259;-71
2022/03/11 05:57:22;;;;;;;21.25;10.85;;;;;;;-5.96;76.35;99292.34;4186423;28;20032;-71
2022/03/11 05:59:22;;;;;;;26.35;12.07;;;;;;;-5.96;77.35;99295.88;4187123;28;20406;-71
2022/03/11 06:01:23;;;;;;;30.50;12.43;;;;;;;-5.96;77.06;99292.34;4187084;28;20455;-71
2022/03/11 06:03:23;;;;;;;30.77;12.70;;;;;;;-5.98;77.38;99281.81;4187796;28;20048;-71
2022/03/11 06:05:23;;;;;;;30.40;14.27;;;;;;;-6.01;77.16;99282.34;4187118;28;20036;-71
2022/03/11 06:07:24;;;;;;;30.98;13.35;;;;;;;-6.04;76.75;99285.53;4186127;28;20536;-71
2022/03/11 06:09:24;;;;;;;28.17;14.18;;;;;;;-6.09;76.82;99284.66;4187138;28;20094;-71
2022/03/11 06:11:27;;;;;;;26.75;12.57;;;;;;;-6.13;78.49;99288.88;4198598;28;20059;-71
2022/03/11 06:13:27;;;;;;;25.17;11.73;;;;;;;-6.13;78.48;99289.69;4186951;28;20049;-71
2022/03/11 06:15:27;;;;;;;34.60;14.90;;;;;;;-6.09;78.81;99295.41;4188164;28;20480;-71
2022/03/11 06:17:28;;;;;;;37.55;16.27;;;;;;;-6.12;78.90;99283.28;4188834;28;20044;-71
2022/03/11 06:19:28;;;;;;;36.67;16.92;;;;;;;-6.08;78.87;99292.47;4185205;28;20041;-71
2022/03/11 06:21:29;;;;;;;37.40;15.32;;;;;;;-6.08;78.49;99289.78;4185351;28;20041;-71
2022/03/11 06:23:30;;;;;;;45.95;16.58;;;;;;;-6.11;78.42;99302.94;4181906;28;20163;-71
2022/03/11 06:25:30;;;;;;;34.67;15.15;;;;;;;-6.15;78.56;99297.22;4181884;28;20258;-71
2022/03/11 06:27:31;;;;;;;38.92;16.48;;;;;;;-6.14;78.95;99300.72;4181863;28;20024;-71
2022/03/11 06:29:31;;;;;;;33.10;14.93;;;;;;;-6.09;79.75;99309.72;4182789;28;20048;-71
2022/03/11 06:31:31;;;;;;;29.17;13.65;;;;;;;-6.04;78.73;99309.78;4102490;28;20286;-71
2022/03/11 06:33:31;;;;;;;23.63;11.55;;;;;;;-6.03;78.36;99308.72;4189013;28;20048;-71
2022/03/11 06:35:33;;;;;;;27.02;12.65;;;;;;;-6.00;78.36;99307.41;4185838;28;20037;-71
2022/03/11 06:37:33;;;;;;;27.42;13.73;;;;;;;-5.99;78.40;99317.09;4182033;28;20491;-71
2022/03/11 06:39:34;;;;;;;34.97;18.00;;;;;;;-5.96;78.90;99317.44;4183309;28;20048;-71
2022/03/11 06:41:34;;;;;;;35.15;16.77;;;;;;;-5.91;78.08;99311.28;4185712;28;20051;-71
2022/03/11 06:43:35;;;;;;;30.42;14.55;;;;;;;-5.82;78.26;99320.53;4182825;28;20283;-71
2022/03/11 06:45:35;;;;;;;29.60;14.20;;;;;;;-5.78;78.05;99324.38;4188103;28;20564;-71
2022/03/11 06:47:36;;;;;;;35.80;18.67;;;;;;;-5.73;77.71;99315.50;4185942;28;20037;-71
2022/03/11 06:49:36;;;;;;;34.35;16.70;;;;;;;-5.60;78.05;99319.72;4189242;28;20051;-71
2022/03/11 06:51:37;;;;;;;28.88;15.13;;;;;;;-5.47;77.28;99313.91;4199512;28;20344;-71
2022/03/11 06:53:37;;;;;;;31.02;15.20;;;;;;;-5.41;76.35;99318.31;4187534;28;20403;-71
2022/03/11 06:55:37;;;;;;;32.58;15.60;;;;;;;-5.25;76.48;99306.59;4186285;28;20055;-71
2022/03/11 06:57:38;;;;;;;30.35;15.63;;;;;;;-5.16;76.10;99305.06;4185420;28;20040;-71
2022/03/11 06:59:38;;;;;;;30.00;14.68;;;;;;;-5.11;76.10;99304.31;4191141;28;20502;-71
2022/03/11 07:01:39;;;;;;;28.17;14.68;;;;;;;-5.02;75.56;99307.38;4202295;28;20036;-71
2022/03/11 07:03:39;;;;;;;31.75;15.90;;;;;;;-4.97;75.15;99308.22;4193568;28;20052;-71
2022/03/11 07:05:39;;;;;;;27.60;14.32;;;;;;;-4.92;74.62;99310.97;4185919;28;20418;-71
2022/03/11 07:07:40;;;;;;;26.98;13.32;;;;;;;-4.87;74.43;99302.09;4192424;28;20496;-71
2022/03/11 07:09:40;;;;;;;23.95;11.35;;;;;;;-4.83;74.72;99304.03;4187631;28;20051;-71
2022/03/11 07:11:41;;;;;;;24.60;12.35;;;;;;;-4.79;74.75;99304.34;4191179;28;20464;-72
2022/03/11 07:13:41;;;;;;;24.80;12.70;;;;;;;-4.75;74.97;99305.44;4200932;28;20043;-71
2022/03/11 07:15:41;;;;;;;21.30;11.48;;;;;;;-4.70;74.59;99307.38;4191497;28;20052;-71
2022/03/11 07:17:42;;;;;;;20.70;10.57;;;;;;;-4.66;73.61;99294.97;4187249;28;20123;-71
2022/03/11 07:19:42;;;;;;;20.65;10.38;;;;;;;-4.60;73.17;99283.13;4187145;28;20041;-71
2022/03/11 07:21:42;;;;;;;22.23;9.07;;;;;;;-4.48;72.22;99307.25;4186172;28;20046;-71
2022/03/11 07:23:43;;;;;;;15.15;8.55;;;;;;;-4.42;71.44;99301.63;4188023;28;20608;-71
2022/03/11 07:25:44;;;;;;;13.88;7.43;;;;;;;-4.33;69.98;99299.25;4186065;28;20397;-71
2022/03/11 07:27:45;;;;;;;15.43;7.15;;;;;;;-4.25;69.67;99299.56;4187511;28;20125;-71
2022/03/11 07:29:45;;;;;;;21.17;10.30;;;;;;;-4.17;69.37;99295.56;4186167;28;20071;-71
2022/03/11 07:31:46;;;;;;;37.55;16.60;;;;;;;-4.07;69.32;99297.50;4197551;28;20047;-71
2022/03/11 07:33:46;;;;;;;32.00;14.15;;;;;;;-3.94;68.10;99298.94;4189411;28;20097;-71
2022/03/11 07:35:46;;;;;;;32.03;13.32;;;;;;;-3.87;67.91;99296.81;4192056;28;20116;-71
2022/03/11 07:37:47;;;;;;;27.38;11.57;;;;;;;-3.77;68.10;99286.03;4186942;28;20048;-71
2022/03/11 07:39:47;;;;;;;48.72;20.85;;;;;;;-3.66;67.50;99295.78;4185677;28;20139;-71
2022/03/11 07:41:50;;;;;;;69.82;24.13;;;;;;;-3.55;67.40;99299.38;4185957;28;20068;-71
2022/03/11 07:43:51;;;;;;;44.70;19.88;;;;;;;-3.44;65.84;99296.41;4187495;28;20044;-71
2022/03/11 07:45:52;;;;;;;80.05;32.60;;;;;;;-3.34;65.60;99306.44;4187558;28;20245;-71
2022/03/11 07:47:53;;;;;;;45.33;20.40;;;;;;;-3.28;65.67;99308.09;4194617;28;20055;-71
2022/03/11 07:49:54;;;;;;;27.33;12.15;;;;;;;-3.20;65.69;99306.75;4200640;28;20449;-72
2022/03/11 07:51:54;;;;;;;19.13;9.55;;;;;;;-3.16;65.13;99292.41;4195032;28;20452;-71
2022/03/11 07:53:55;;;;;;;21.95;10.35;;;;;;;-3.06;64.95;99296.22;4190045;28;20071;-71
2022/03/11 07:55:55;;;;;;;21.88;11.10;;;;;;;-3.00;65.22;99292.44;4191609;28;20829;-72
2022/03/11 07:57:55;;;;;;;22.65;10.35;;;;;;;-2.90;66.01;99295.13;4187095;28;20283;-71
2022/03/11 07:59:56;;;;;;;15.43;8.57;;;;;;;-2.85;65.59;99292.44;4190561;28;20138;-71
2022/03/11 08:01:56;;;;;;;23.92;9.93;;;;;;;-2.76;65.12;99290.00;4189049;28;20045;-71
2022/03/11 08:03:57;;;;;;;24.70;9.68;;;;;;;-2.69;65.79;99283.25;4188982;28;20395;-71
2022/03/11 08:05:57;;;;;;;18.95;9.63;;;;;;;-2.62;65.23;99282.97;4197200;28;20549;-71
2022/03/11 08:07:57;;;;;;;16.33;8.48;;;;;;;-2.55;65.59;99278.91;4203828;28;20080;-71
2022/03/11 08:09:58;;;;;;;20.75;8.50;;;;;;;-2.44;64.47;99287.00;4200635;28;20377;-71
2022/03/11 08:11:58;;;;;;;15.50;7.32;;;;;;;-2.26;63.46;99275.59;4192001;28;20365;-71
2022/03/11 08:13:58;;;;;;;14.15;8.48;;;;;;;-2.13;63.71;99280.44;4188914;28;20423;-71
2022/03/11 08:16:00;;;;;;;13.75;7.40;;;;;;;-2.04;62.87;99283.41;4196065;28;20524;-71
2022/03/11 08:18:01;;;;;;;17.35;7.65;;;;;;;-1.96;61.03;99272.00;4190511;28;20444;-71
2022/03/11 08:20:02;;;;;;;12.98;7.10;;;;;;;-1.90;61.38;99264.63;4188178;28;20461;-71
2022/03/11 08:22:03;;;;;;;16.95;8.75;;;;;;;-1.79;61.93;99267.03;4196005;28;20021;-71
2022/03/11 08:24:04;;;;;;;14.60;7.45;;;;;;;-1.69;62.58;99271.59;4188441;28;20028;-72
2022/03/11 08:26:05;;;;;;;15.38;7.43;;;;;;;-1.52;66.03;99263.09;4189126;28;20021;-72
2022/03/11 08:28:10;;;;;;;11.38;6.97;;;;;;;-1.47;62.96;99261.19;4190857;28;20516;-72
2022/03/11 08:30:11;;;;;;;14.90;7.80;;;;;;;-1.30;64.52;99268.97;4187966;28;20032;-72
2022/03/11 08:32:12;;;;;;;13.13;7.82;;;;;;;-1.28;63.16;99265.97;4185420;28;20463;-71
2022/03/11 08:34:12;;;;;;;20.35;9.35;;;;;;;-1.24;62.31;99269.72;4185511;28;20029;-72
2022/03/11 08:36:13;;;;;;;12.05;7.53;;;;;;;-1.19;60.97;99267.78;4187514;28;20419;-72
2022/03/11 08:38:15;;;;;;;16.27;8.80;;;;;;;-1.13;59.70;99263.16;4185303;28;20334;-72
2022/03/11 08:40:17;;;;;;;21.70;10.10;;;;;;;-0.97;59.06;99255.72;4187793;28;20434;-71
2022/03/11 08:42:17;;;;;;;20.92;9.70;;;;;;;-0.83;58.05;99256.66;4185041;28;20040;-72
2022/03/11 08:44:18;;;;;;;14.85;7.32;;;;;;;-0.66;57.15;99254.38;4186690;28;20032;-72
2022/03/11 08:46:18;;;;;;;22.13;8.35;;;;;;;-0.62;58.99;99249.97;4188117;28;20456;-72
2022/03/11 08:48:18;;;;;;;18.60;8.13;;;;;;;-0.51;59.42;99244.44;4188229;28;20029;-71
2022/03/11 08:50:20;;;;;;;17.55;7.75;;;;;;;-0.42;57.10;99243.50;4189566;28;20028;-72
2022/03/11 08:52:21;;;;;;;25.90;12.07;;;;;;;-0.32;56.83;99234.47;4187557;28;20147;-72
2022/03/11 08:54:21;;;;;;;21.30;8.98;;;;;;;-0.19;58.24;99236.47;4188484;28;20137;-72
2022/03/11 08:56:22;;;;;;;16.52;8.00;;;;;;;-0.08;58.00;99240.72;4185947;28;20052;-72
2022/03/11 08:58:22;;;;;;;18.88;7.45;;;;;;;0.02;57.19;99234.34;4184202;28;20459;-72
2022/03/11 09:00:25;;;;;;;12.05;5.97;;;;;;;0.15;55.88;99233.63;4186491;28;20032;-71
2022/03/11 09:02:25;;;;;;;;;;;;;;;0.27;55.51;99230.50;4184988;28;20048;-72
2022/03/11 09:04:25;;;;;;;13.88;5.65;;;;;;;0.43;53.58;99225.69;4184449;28;20404;-71
2022/03/11 09:06:26;;;;;;;11.68;5.65;;;;;;;0.69;50.29;99226.94;4185711;28;20044;-71
2022/03/11 09:08:26;;;;;;;14.32;6.75;;;;;;;0.81;53.07;99219.09;4183838;28;20468;-71
2022/03/11 09:10:26;;;;;;;11.75;6.15;;;;;;;1.09;49.18;99230.94;4189627;28;20380;-71
2022/03/11 09:12:26;;;;;;;10.98;5.22;;;;;;;1.27;48.75;99233.94;4193435;28;20128;-71
2022/03/11 09:14:27;;;;;;;11.32;6.22;;;;;;;1.40;51.59;99217.59;4189678;28;20040;-71
2022/03/11 09:16:27;;;;;;;11.25;5.80;;;;;;;1.48;46.42;99221.56;4188277;28;20354;-72
2022/03/11 09:18:27;;;;;;;13.13;6.03;;;;;;;1.72;44.29;99217.84;4183357;28;20049;-71